| time (UTC) | temp F | wind direction | speed MPH | gust MPH | rain 1hr in | rain 24hr in | rain mn in | humidity % | barometer mb |
| 20260504202016 | 70 | 9 | 3.0 | 9.0 | 0.00 | 0.00 | 0.00 | 28 | 1010.2 |
| 20260504201953 | 70 | 5 | 4.0 | 10.0 | 0.00 | 0.00 | 0.00 | 27 | 1010.3 |
| 20260504201016 | 70 | 39 | 5.0 | 10.0 | 0.00 | 0.00 | 0.00 | 28 | 1010.3 |
| 20260504200515 | 71 | 32 | 5.0 | 10.0 | 0.00 | 0.00 | 0.00 | 27 | 1010.3 |
| 20260504200053 | 71 | 5 | 4.0 | 10.0 | 0.00 | 0.00 | 0.00 | 28 | 1010.3 |
| 20260504195518 | 70 | 30 | 4.0 | 12.0 | 0.00 | 0.00 | 0.00 | 29 | 1010.4 |
| 20260504195014 | 70 | 37 | 5.0 | 12.0 | 0.00 | 0.00 | 0.00 | 29 | 1010.4 |
| 20260504194551 | 70 | 45 | 4.0 | 12.0 | 0.00 | 0.00 | 0.00 | 29 | 1010.4 |
| 20260504194017 | 70 | 346 | 4.0 | 12.0 | 0.00 | 0.00 | 0.00 | 30 | 1010.4 |
| 20260504193518 | 69 | 19 | 6.0 | 11.0 | 0.00 | 0.00 | 0.00 | 28 | 1010.3 |
| 20260504193044 | 69 | 17 | 6.0 | 11.0 | 0.00 | 0.00 | 0.00 | 28 | 1010.4 |
| 20260504192515 | 70 | 360 | 6.0 | 10.0 | 0.00 | 0.00 | 0.00 | 32 | 1010.4 |
| 20260504192014 | 69 | 11 | 6.0 | 10.0 | 0.00 | 0.00 | 0.00 | 29 | 1010.7 |
| 20260504191608 | 69 | 27 | 6.0 | 10.0 | 0.00 | 0.00 | 0.00 | 30 | 1010.7 |
| 20260504191022 | 69 | 347 | 6.0 | 11.0 | 0.00 | 0.00 | 0.00 | 30 | 1010.6 |
| 20260504190523 | 68 | 11 | 5.0 | 12.0 | 0.00 | 0.00 | 0.00 | 31 | 1010.7 |
| 20260504190110 | 68 | 29 | 7.0 | 12.0 | 0.00 | 0.00 | 0.00 | 29 | 1010.8 |
| 20260504185524 | 68 | 11 | 5.0 | 10.0 | 0.00 | 0.00 | 0.00 | 31 | 1010.6 |
| 20260504185016 | 67 | 28 | 7.0 | 11.0 | 0.00 | 0.00 | 0.00 | 34 | 1010.6 |
| 20260504184550 | 67 | 26 | 7.0 | 11.0 | 0.00 | 0.00 | 0.00 | 31 | 1010.7 |
| 20260504184015 | 68 | 17 | 7.0 | 11.0 | 0.00 | 0.00 | 0.00 | 32 | 1010.7 |
| 20260504183527 | 68 | 37 | 4.0 | 11.0 | 0.00 | 0.00 | 0.00 | 31 | 1010.9 |
| 20260504183109 | 68 | 15 | 5.0 | 11.0 | 0.00 | 0.00 | 0.00 | 34 | 1010.9 |
| 20260504182516 | 67 | 34 | 6.0 | 11.0 | 0.00 | 0.00 | 0.00 | 32 | 1011.1 |
| 20260504182016 | 67 | 47 | 7.0 | 11.0 | 0.00 | 0.00 | 0.00 | 31 | 1011.0 |
| 20260504181612 | 67 | 9 | 5.0 | 10.0 | 0.00 | 0.00 | 0.00 | 33 | 1011.0 |
| 20260504181017 | 67 | 9 | 7.0 | 11.0 | 0.00 | 0.00 | 0.00 | 33 | 1011.0 |
| 20260504180517 | 68 | 5 | 6.0 | 11.0 | 0.00 | 0.00 | 0.00 | 33 | 1010.9 |
| 20260504180111 | 67 | 352 | 4.0 | 11.0 | 0.00 | 0.00 | 0.00 | 37 | 1010.9 |
| 20260504175516 | 68 | 33 | 5.0 | 11.0 | 0.00 | 0.00 | 0.00 | 33 | 1010.9 |
| 20260504175018 | 67 | 32 | 4.0 | 11.0 | 0.00 | 0.00 | 0.00 | 34 | 1010.9 |
| 20260504174611 | 67 | 343 | 5.0 | 10.0 | 0.00 | 0.00 | 0.00 | 33 | 1010.9 |
| 20260504174017 | 67 | 348 | 5.0 | 10.0 | 0.00 | 0.00 | 0.00 | 36 | 1010.8 |
| 20260504173514 | 67 | 20 | 6.0 | 10.0 | 0.00 | 0.00 | 0.00 | 35 | 1010.9 |
| 20260504173109 | 67 | 10 | 5.0 | 9.0 | 0.00 | 0.00 | 0.00 | 32 | 1010.9 |
| 20260504172518 | 67 | 21 | 4.0 | 8.0 | 0.00 | 0.00 | 0.00 | 31 | 1010.8 |
| 20260504172016 | 67 | 10 | 4.0 | 11.0 | 0.00 | 0.00 | 0.00 | 32 | 1010.7 |
| 20260504171553 | 67 | 10 | 4.0 | 12.0 | 0.00 | 0.00 | 0.00 | 33 | 1010.8 |
| 20260504171020 | 67 | 18 | 4.0 | 9.0 | 0.00 | 0.00 | 0.00 | 33 | 1010.9 |
| 20260504170516 | 67 | 360 | 6.0 | 9.0 | 0.00 | 0.00 | 0.00 | 34 | 1010.9 |
| 20260504151019 | 64 | 15 | 2.0 | 5.0 | 0.00 | 0.00 | 0.00 | 34 | 1010.9 |
| 20260504150519 | 64 | 28 | 1.0 | 3.0 | 0.00 | 0.00 | 0.00 | 38 | 1010.9 |
| 20260504150108 | 64 | 21 | 1.0 | 4.0 | 0.00 | 0.00 | 0.00 | 35 | 1010.9 |
| 20260504141016 | 62 | 12 | 3.0 | 5.0 | 0.00 | 0.00 | 0.00 | 36 | 1010.6 |
| 20260504140514 | 62 | 12 | 3.0 | 5.0 | 0.00 | 0.00 | 0.00 | 37 | 1010.6 |
| 20260504130508 | 60 | 12 | 2.0 | 3.0 | 0.00 | 0.00 | 0.00 | 37 | 1010.2 |
| 20260504120112 | 60 | 12 | 0.0 | 0.0 | 0.00 | 0.00 | 0.00 | 36 | 1010.2 |
| 20260504110518 | 60 | 10 | 1.0 | 3.0 | 0.00 | 0.00 | 0.00 | 36 | 1010.6 |
| 20260504110109 | 60 | 10 | 2.0 | 3.0 | 0.00 | 0.00 | 0.00 | 37 | 1010.4 |
| 20260504100527 | 60 | 360 | 2.0 | 3.0 | 0.00 | 0.00 | 0.00 | 38 | 1010.7 |
| 20260504081559 | 61 | 352 | 0.0 | 0.0 | 0.00 | 0.00 | 0.00 | 36 | 1010.9 |
| 20260504081016 | 61 | 352 | 0.0 | 0.0 | 0.00 | 0.00 | 0.00 | 36 | 1010.9 |
| 20260504080517 | 61 | 352 | 0.0 | 1.0 | 0.00 | 0.00 | 0.00 | 36 | 1010.9 |
| 20260504050521 | 63 | 11 | 2.0 | 5.0 | 0.00 | 0.00 | 0.00 | 35 | 1011.1 |
| 20260504045516 | 63 | 5 | 2.0 | 4.0 | 0.00 | 0.00 | 0.00 | 34 | 1011.0 |
| 20260504045015 | 63 | 5 | 2.0 | 4.0 | 0.00 | 0.00 | 0.00 | 34 | 1011.1 |
| 20260504044543 | 63 | 12 | 2.0 | 6.0 | 0.00 | 0.00 | 0.00 | 34 | 1011.2 |
| 20260504044019 | 64 | 348 | 3.0 | 6.0 | 0.00 | 0.00 | 0.00 | 34 | 1011.2 |
| 20260504043518 | 64 | 9 | 2.0 | 5.0 | 0.00 | 0.00 | 0.00 | 34 | 1011.1 |
| 20260504043104 | 64 | 15 | 1.0 | 4.0 | 0.00 | 0.00 | 0.00 | 33 | 1011.2 |
| 20260504042519 | 64 | 15 | 2.0 | 4.0 | 0.00 | 0.00 | 0.00 | 34 | 1011.2 |
| 20260504042019 | 64 | 14 | 1.0 | 3.0 | 0.00 | 0.00 | 0.00 | 34 | 1011.1 |
| 20260504041602 | 64 | 14 | 1.0 | 3.0 | 0.00 | 0.00 | 0.00 | 34 | 1011.2 |
| 20260504041028 | 64 | 14 | 1.0 | 4.0 | 0.00 | 0.00 | 0.00 | 34 | 1011.2 |
| 20260504040520 | 64 | 14 | 2.0 | 4.0 | 0.00 | 0.00 | 0.00 | 34 | 1011.1 |
| 20260504040142 | 64 | 14 | 1.0 | 3.0 | 0.00 | 0.00 | 0.00 | 34 | 1011.3 |
| 20260504035518 | 64 | 14 | 0.0 | 3.0 | 0.00 | 0.00 | 0.00 | 34 | 1011.1 |
| 20260504035020 | 64 | 14 | 1.0 | 4.0 | 0.00 | 0.00 | 0.00 | 34 | 1011.2 |
| 20260504034607 | 64 | 14 | 2.0 | 4.0 | 0.00 | 0.00 | 0.00 | 34 | 1011.1 |
| 20260504034018 | 64 | 10 | 2.0 | 5.0 | 0.00 | 0.00 | 0.00 | 34 | 1011.1 |
| 20260504033518 | 63 | 20 | 2.0 | 5.0 | 0.00 | 0.00 | 0.00 | 34 | 1011.0 |
| 20260504033316 | 64 | 11 | 3.0 | 8.0 | 0.00 | 0.00 | 0.00 | 34 | 1011.0 |
| 20260504032515 | 64 | 23 | 4.0 | 8.0 | 0.00 | 0.00 | 0.00 | 35 | 1010.9 |
| 20260504032020 | 64 | 347 | 3.0 | 8.0 | 0.00 | 0.00 | 0.00 | 34 | 1010.9 |
| 20260504031600 | 64 | 15 | 4.0 | 8.0 | 0.00 | 0.00 | 0.00 | 33 | 1010.8 |
| 20260504031012 | 64 | 9 | 4.0 | 8.0 | 0.00 | 0.00 | 0.00 | 33 | 1010.9 |
| 20260504030516 | 64 | 360 | 4.0 | 10.0 | 0.00 | 0.00 | 0.00 | 33 | 1011.0 |
| 20260504030312 | 65 | 15 | 6.0 | 14.0 | 0.00 | 0.00 | 0.00 | 34 | 1010.9 |
| 20260504025514 | 65 | 5 | 5.0 | 11.0 | 0.00 | 0.00 | 0.00 | 33 | 1010.7 |
| 20260504025016 | 65 | 5 | 4.0 | 11.0 | 0.00 | 0.00 | 0.00 | 32 | 1010.7 |
| 20260504024816 | 65 | 351 | 3.0 | 11.0 | 0.00 | 0.00 | 0.00 | 33 | 1010.7 |
| 20260504024015 | 65 | 9 | 4.0 | 8.0 | 0.00 | 0.00 | 0.00 | 33 | 1010.7 |
| 20260504023751 | 66 | 9 | 4.0 | 6.0 | 0.00 | 0.00 | 0.00 | 33 | 1010.6 |
| 20260504023731 | 66 | 5 | 3.0 | 6.0 | 0.00 | 0.00 | 0.00 | 34 | 1010.8 |
| 20260504022521 | 66 | 10 | 3.0 | 5.0 | 0.00 | 0.00 | 0.00 | 34 | 1010.7 |
| 20260504022027 | 66 | 9 | 3.0 | 5.0 | 0.00 | 0.00 | 0.00 | 34 | 1010.7 |
| 20260504021555 | 66 | 336 | 2.0 | 5.0 | 0.00 | 0.00 | 0.00 | 34 | 1010.7 |
| 20260504021016 | 66 | 360 | 2.0 | 3.0 | 0.00 | 0.00 | 0.00 | 33 | 1010.7 |
| 20260504020514 | 66 | 360 | 2.0 | 4.0 | 0.00 | 0.00 | 0.00 | 33 | 1010.8 |
| 20260504020110 | 66 | 360 | 1.0 | 4.0 | 0.00 | 0.00 | 0.00 | 34 | 1010.9 |
| 20260504015517 | 66 | 352 | 2.0 | 3.0 | 0.00 | 0.00 | 0.00 | 34 | 1011.0 |
| 20260504015021 | 66 | 360 | 2.0 | 3.0 | 0.00 | 0.00 | 0.00 | 35 | 1010.9 |
| 20260504014604 | 66 | 360 | 2.0 | 3.0 | 0.00 | 0.00 | 0.00 | 35 | 1011.0 |
| 20260504014019 | 67 | 360 | 2.0 | 5.0 | 0.00 | 0.00 | 0.00 | 35 | 1011.0 |
| 20260504013519 | 67 | 360 | 2.0 | 6.0 | 0.00 | 0.00 | 0.00 | 35 | 1011.0 |
| 20260504013058 | 67 | 13 | 3.0 | 6.0 | 0.00 | 0.00 | 0.00 | 35 | 1011.0 |
| 20260504012521 | 66 | 12 | 2.0 | 6.0 | 0.00 | 0.00 | 0.00 | 36 | 1011.2 |
| 20260504012019 | 67 | 360 | 3.0 | 6.0 | 0.00 | 0.00 | 0.00 | 35 | 1011.2 |
| 20260504011608 | 67 | 10 | 3.0 | 6.0 | 0.00 | 0.00 | 0.00 | 35 | 1011.4 |
| 20260504011021 | 67 | 5 | 4.0 | 5.0 | 0.00 | 0.00 | 0.00 | 34 | 1011.4 |
| 20260504010516 | 67 | 352 | 2.0 | 5.0 | 0.00 | 0.00 | 0.00 | 35 | 1011.5 |
| 20260504010104 | 67 | 14 | 3.0 | 5.0 | 0.00 | 0.00 | 0.00 | 34 | 1011.4 |
| 20260504005521 | 67 | 20 | 2.0 | 8.0 | 0.00 | 0.00 | 0.00 | 34 | 1011.4 |
| 20260504005021 | 67 | 360 | 3.0 | 8.0 | 0.00 | 0.00 | 0.00 | 35 | 1011.5 |
| 20260504004601 | 67 | 360 | 3.0 | 5.0 | 0.00 | 0.00 | 0.00 | 34 | 1011.4 |
| 20260504004020 | 67 | 10 | 2.0 | 5.0 | 0.00 | 0.00 | 0.00 | 34 | 1011.6 |
| 20260504003521 | 67 | 342 | 3.0 | 6.0 | 0.00 | 0.00 | 0.00 | 35 | 1011.6 |
| 20260504003107 | 67 | 9 | 3.0 | 8.0 | 0.00 | 0.00 | 0.00 | 35 | 1011.5 |
| 20260504002517 | 67 | 14 | 4.0 | 8.0 | 0.00 | 0.00 | 0.00 | 34 | 1011.6 |
| 20260504002019 | 67 | 352 | 4.0 | 6.0 | 0.00 | 0.00 | 0.00 | 34 | 1011.6 |
| 20260504001814 | 67 | 348 | 3.0 | 11.0 | 0.00 | 0.00 | 0.00 | 34 | 1011.8 |
| 20260504001014 | 67 | 32 | 4.0 | 11.0 | 0.00 | 0.00 | 0.00 | 34 | 1011.9 |
| 20260504000517 | 67 | 24 | 4.0 | 9.0 | 0.00 | 0.00 | 0.00 | 35 | 1011.9 |
| 20260504000103 | 68 | 10 | 6.0 | 10.0 | 0.00 | 0.00 | 0.00 | 34 | 1011.8 |
| 20260503235517 | 68 | 27 | 5.0 | 10.0 | 0.00 | 0.00 | 0.00 | 34 | 1012.0 |
| 20260503235017 | 67 | 26 | 5.0 | 9.0 | 0.00 | 0.00 | 0.00 | 34 | 1012.0 |
| 20260503234620 | 68 | 9 | 3.0 | 10.0 | 0.00 | 0.00 | 0.00 | 35 | 1012.0 |
| 20260503234016 | 68 | 350 | 2.0 | 10.0 | 0.00 | 0.00 | 0.00 | 33 | 1011.9 |
| 20260503233524 | 68 | 13 | 4.0 | 8.0 | 0.00 | 0.00 | 0.00 | 33 | 1012.1 |
| 20260503233052 | 68 | 5 | 3.0 | 9.0 | 0.00 | 0.00 | 0.00 | 34 | 1012.2 |
| 20260503232519 | 68 | 25 | 4.0 | 11.0 | 0.00 | 0.00 | 0.00 | 32 | 1012.2 |
| 20260503232014 | 69 | 5 | 7.0 | 11.0 | 0.00 | 0.00 | 0.00 | 32 | 1012.3 |
| 20260503231951 | 69 | 9 | 3.0 | 8.0 | 0.00 | 0.00 | 0.00 | 34 | 1012.4 |
| 20260503231019 | 69 | 344 | 3.0 | 9.0 | 0.00 | 0.00 | 0.00 | 32 | 1012.4 |
| 20260503230515 | 69 | 39 | 5.0 | 9.0 | 0.00 | 0.00 | 0.00 | 32 | 1012.6 |
| 20260503230119 | 69 | 333 | 3.0 | 9.0 | 0.00 | 0.00 | 0.00 | 31 | 1012.7 |
| 20260503225515 | 69 | 222 | 1.0 | 10.0 | 0.00 | 0.00 | 0.00 | 34 | 1012.7 |
| 20260503225015 | 68 | 42 | 7.0 | 10.0 | 0.00 | 0.00 | 0.00 | 32 | 1012.8 |
| 20260503224616 | 68 | 13 | 4.0 | 11.0 | 0.00 | 0.00 | 0.00 | 32 | 1013.0 |
| 20260503224016 | 69 | 13 | 5.0 | 10.0 | 0.00 | 0.00 | 0.00 | 33 | 1013.1 |
| 20260503223517 | 68 | 13 | 4.0 | 9.0 | 0.00 | 0.00 | 0.00 | 32 | 1013.2 |
| 20260503223113 | 68 | 24 | 6.0 | 9.0 | 0.00 | 0.00 | 0.00 | 32 | 1013.1 |
| 20260503222516 | 68 | 13 | 4.0 | 9.0 | 0.00 | 0.00 | 0.00 | 33 | 1013.0 |
| 20260503222015 | 69 | 5 | 4.0 | 10.0 | 0.00 | 0.00 | 0.00 | 35 | 1013.1 |
| 20260503221613 | 68 | 12 | 5.0 | 9.0 | 0.00 | 0.00 | 0.00 | 34 | 1013.0 |
| 20260503221019 | 67 | 5 | 3.0 | 9.0 | 0.00 | 0.00 | 0.00 | 33 | 1013.1 |
| 20260503220516 | 67 | 11 | 5.0 | 9.0 | 0.00 | 0.00 | 0.00 | 34 | 1013.2 |
| 20260503220117 | 67 | 34 | 4.0 | 9.0 | 0.00 | 0.00 | 0.00 | 33 | 1013.6 |
| 20260503215516 | 68 | 26 | 2.0 | 8.0 | 0.00 | 0.00 | 0.00 | 34 | 1013.5 |
| 20260503215019 | 68 | 11 | 5.0 | 10.0 | 0.00 | 0.00 | 0.00 | 33 | 1013.5 |
| 20260503214630 | 68 | 22 | 6.0 | 10.0 | 0.00 | 0.00 | 0.00 | 32 | 1013.7 |
| 20260503214018 | 68 | 32 | 3.0 | 11.0 | 0.00 | 0.00 | 0.00 | 32 | 1013.8 |
| 20260503213515 | 68 | 352 | 6.0 | 11.0 | 0.00 | 0.00 | 0.00 | 32 | 1013.7 |
| 20260503213109 | 68 | 20 | 5.0 | 13.0 | 0.00 | 0.00 | 0.00 | 33 | 1013.8 |
| 20260503212517 | 68 | 24 | 6.0 | 13.0 | 0.00 | 0.00 | 0.00 | 31 | 1013.7 |
| 20260503212016 | 68 | 34 | 3.0 | 10.0 | 0.00 | 0.00 | 0.00 | 32 | 1013.8 |
| 20260503211609 | 69 | 5 | 5.0 | 10.0 | 0.00 | 0.00 | 0.00 | 32 | 1014.0 |
| 20260503211017 | 68 | 22 | 4.0 | 10.0 | 0.00 | 0.00 | 0.00 | 33 | 1013.9 |
| 20260503210515 | 69 | 41 | 4.0 | 12.0 | 0.00 | 0.00 | 0.00 | 32 | 1013.9 |
| 20260503210050 | 68 | 29 | 6.0 | 12.0 | 0.00 | 0.00 | 0.00 | 32 | 1014.0 |
| 20260503205516 | 68 | 360 | 4.0 | 12.0 | 0.00 | 0.00 | 0.00 | 33 | 1014.0 |
| 20260503205013 | 69 | 344 | 5.0 | 11.0 | 0.00 | 0.00 | 0.00 | 32 | 1014.0 |
| 20260503204556 | 68 | 30 | 7.0 | 12.0 | 0.00 | 0.00 | 0.00 | 33 | 1014.1 |
| 20260503204016 | 68 | 23 | 7.0 | 12.0 | 0.00 | 0.00 | 0.00 | 32 | 1014.1 |
| 20260503203515 | 68 | 19 | 3.0 | 10.0 | 0.00 | 0.00 | 0.00 | 33 | 1014.1 |
| 20260503203057 | 68 | 42 | 2.0 | 10.0 | 0.00 | 0.00 | 0.00 | 33 | 1014.4 |
| 20260503202517 | 68 | 30 | 6.0 | 10.0 | 0.00 | 0.00 | 0.00 | 32 | 1014.5 |